Wink, TX

7:33 PM CDT on September 25, 2016 (GMT -0500)
Winkler County | | Change Station

Elev 2822 ft 31.78 °N, 103.20 °W | Updated 11 minutes ago

Overcast
Overcast
60 °F
Feels Like 60 °F
N
18
Wind Variable Wind from NNE
Gusts 23 mph

Today
High -- | Low -- °F
--% Chance of Precip.
Yesterday
High -- | Low -- °F
Precip. -- in
Pressure 30.18 in
Visibility 4.0 miles
Clouds Few 800 ft
Mostly Cloudy 1200 ft
Overcast 6000 ft
Dew Point 59 °F
Humidity 96%
Rainfall 0.00 in
Snow Depth Not available.
7:43 AM 7:44 PM
Waning Crescent, 23% visible
SPECI KINK 260022Z AUTO 03016G20KT 4SM BR FEW008 BKN012 OVC060 16/15 A3018 RMK AO2 T01560150 PWINO TSNO
Pressure 30.18 in
Visibility 4.0 miles
Clouds Few 800 ft
Mostly Cloudy 1200 ft
Overcast 6000 ft
Dew Point 59 °F
Humidity 96%
Rainfall 0.00 in
Snow Depth Not available.
7:43 AM 7:44 PM
Waning Crescent, 23% visible
SPECI KINK 260022Z AUTO 03016G20KT 4SM BR FEW008 BKN012 OVC060 16/15 A3018 RMK AO2 T01560150 PWINO TSNO

10-Day Weather Forecast

Almanac

Astronomy

Sep. 25, 2016 Rise Set
Actual Time
Civil Twilight
Nautical Twilight
Astronomical Twilight
Moon
Length of Visible Light
Length of Day
Tomorrow will be .
, % of the Moon is Illuminated

Today's Extremes

State Highs State Lows

Community

WunderPhotos

Upload Photos

1,941,796 photos uploaded!

WunderBlog® & News

Nearby

Air Quality

  Air Quality AQ Index Pollutant
Not available.

Snow Depth

Station Depth Elevation

Earthquake Activity

City Distance Mag. Time & Date
Minimum magnitude displayed is 2.5.

Coastal Water Temperatures

Place Temperature

Stations

Nearby Weather Stations

Station Location Temp. Windchill Dew Point Humidity Wind Precip. Elev Updated Type
                   

Watches & Warnings

There are currently no watches in effect.